sensor_id;sensor_type;location;lat;lon;timestamp;P1;durP1;ratioP1;P2;durP2;ratioP2
757;SDS011;363;48.764;9.172;2023-04-05T00:00:51;6.03;;;5.43;;
757;SDS011;363;48.764;9.172;2023-04-05T00:03:18;5.95;;;5.45;;
757;SDS011;363;48.764;9.172;2023-04-05T00:05:44;7.20;;;6.50;;
757;SDS011;363;48.764;9.172;2023-04-05T00:08:10;6.57;;;5.80;;
757;SDS011;363;48.764;9.172;2023-04-05T00:10:47;6.65;;;5.90;;
757;SDS011;363;48.764;9.172;2023-04-05T00:13:13;7.20;;;5.90;;
757;SDS011;363;48.764;9.172;2023-04-05T00:15:38;7.30;;;6.40;;
757;SDS011;363;48.764;9.172;2023-04-05T00:18:05;7.03;;;6.43;;
757;SDS011;363;48.764;9.172;2023-04-05T00:20:30;7.40;;;6.40;;
757;SDS011;363;48.764;9.172;2023-04-05T00:22:57;6.07;;;5.45;;
757;SDS011;363;48.764;9.172;2023-04-05T00:25:23;7.82;;;6.30;;
757;SDS011;363;48.764;9.172;2023-04-05T00:27:50;6.72;;;6.03;;
757;SDS011;363;48.764;9.172;2023-04-05T00:30:15;8.37;;;6.60;;
757;SDS011;363;48.764;9.172;2023-04-05T00:32:48;6.45;;;5.78;;
757;SDS011;363;48.764;9.172;2023-04-05T00:35:14;7.72;;;6.20;;
757;SDS011;363;48.764;9.172;2023-04-05T00:37:40;7.88;;;5.70;;
757;SDS011;363;48.764;9.172;2023-04-05T00:40:06;6.83;;;6.13;;
757;SDS011;363;48.764;9.172;2023-04-05T00:42:32;7.72;;;6.07;;
757;SDS011;363;48.764;9.172;2023-04-05T00:44:57;10.23;;;5.30;;
757;SDS011;363;48.764;9.172;2023-04-05T00:47:23;6.53;;;5.37;;
757;SDS011;363;48.764;9.172;2023-04-05T00:49:48;5.90;;;5.40;;
757;SDS011;363;48.764;9.172;2023-04-05T00:52:15;8.07;;;5.28;;
757;SDS011;363;48.764;9.172;2023-04-05T00:54:43;6.50;;;5.85;;
757;SDS011;363;48.764;9.172;2023-04-05T00:57:09;6.25;;;5.32;;
757;SDS011;363;48.764;9.172;2023-04-05T00:59:35;6.17;;;5.57;;
757;SDS011;363;48.764;9.172;2023-04-05T01:04:52;7.00;;;5.45;;
757;SDS011;363;48.764;9.172;2023-04-05T01:07:30;6.13;;;4.90;;
757;SDS011;363;48.764;9.172;2023-04-05T01:10:10;5.75;;;5.25;;
757;SDS011;363;48.764;9.172;2023-04-05T01:12:38;7.05;;;5.57;;
757;SDS011;363;48.764;9.172;2023-04-05T01:15:05;6.07;;;5.50;;
757;SDS011;363;48.764;9.172;2023-04-05T01:17:32;7.68;;;6.15;;
757;SDS011;363;48.764;9.172;2023-04-05T01:20:06;6.68;;;6.07;;
757;SDS011;363;48.764;9.172;2023-04-05T01:28:39;8.43;;;5.78;;
757;SDS011;363;48.764;9.172;2023-04-05T01:31:28;9.32;;;5.50;;
757;SDS011;363;48.764;9.172;2023-04-05T01:34:32;9.68;;;6.45;;
757;SDS011;363;48.764;9.172;2023-04-05T01:37:06;6.97;;;6.38;;
757;SDS011;363;48.764;9.172;2023-04-05T01:39:36;7.55;;;6.05;;
757;SDS011;363;48.764;9.172;2023-04-05T01:42:02;6.50;;;5.90;;
757;SDS011;363;48.764;9.172;2023-04-05T01:44:28;6.32;;;5.72;;
757;SDS011;363;48.764;9.172;2023-04-05T01:46:54;8.30;;;5.77;;
757;SDS011;363;48.764;9.172;2023-04-05T01:49:20;6.20;;;5.60;;
757;SDS011;363;48.764;9.172;2023-04-05T01:51:46;6.70;;;5.63;;
757;SDS011;363;48.764;9.172;2023-04-05T01:54:12;8.03;;;5.93;;
757;SDS011;363;48.764;9.172;2023-04-05T01:56:38;6.10;;;5.50;;
757;SDS011;363;48.764;9.172;2023-04-05T01:59:04;6.53;;;5.87;;
757;SDS011;363;48.764;9.172;2023-04-05T02:01:29;6.13;;;5.53;;
757;SDS011;363;48.764;9.172;2023-04-05T02:03:55;6.73;;;5.97;;
757;SDS011;363;48.764;9.172;2023-04-05T02:06:21;7.10;;;5.37;;
757;SDS011;363;48.764;9.172;2023-04-05T02:08:47;6.90;;;5.50;;
757;SDS011;363;48.764;9.172;2023-04-05T02:11:12;5.50;;;4.97;;
757;SDS011;363;48.764;9.172;2023-04-05T02:13:38;7.47;;;5.77;;
757;SDS011;363;48.764;9.172;2023-04-05T02:16:04;5.90;;;5.30;;
757;SDS011;363;48.764;9.172;2023-04-05T02:18:29;6.30;;;5.53;;
757;SDS011;363;48.764;9.172;2023-04-05T02:21:02;6.60;;;5.90;;
757;SDS011;363;48.764;9.172;2023-04-05T02:23:29;6.90;;;6.10;;
757;SDS011;363;48.764;9.172;2023-04-05T02:25:56;6.90;;;5.85;;
757;SDS011;363;48.764;9.172;2023-04-05T02:28:22;7.05;;;6.35;;
757;SDS011;363;48.764;9.172;2023-04-05T02:30:48;6.63;;;6.00;;
757;SDS011;363;48.764;9.172;2023-04-05T02:33:13;6.90;;;5.53;;
757;SDS011;363;48.764;9.172;2023-04-05T02:35:39;7.47;;;6.20;;
757;SDS011;363;48.764;9.172;2023-04-05T02:38:05;7.28;;;6.10;;
757;SDS011;363;48.764;9.172;2023-04-05T02:40:31;6.68;;;5.90;;
757;SDS011;363;48.764;9.172;2023-04-05T02:42:58;6.15;;;5.55;;
757;SDS011;363;48.764;9.172;2023-04-05T02:45:23;6.10;;;5.50;;
757;SDS011;363;48.764;9.172;2023-04-05T02:47:51;8.27;;;5.80;;
757;SDS011;363;48.764;9.172;2023-04-05T02:50:18;8.60;;;6.03;;
757;SDS011;363;48.764;9.172;2023-04-05T02:52:45;6.57;;;5.60;;
757;SDS011;363;48.764;9.172;2023-04-05T02:55:12;6.10;;;5.55;;
757;SDS011;363;48.764;9.172;2023-04-05T02:57:37;7.70;;;6.20;;
757;SDS011;363;48.764;9.172;2023-04-05T03:00:03;6.63;;;5.37;;
757;SDS011;363;48.764;9.172;2023-04-05T03:02:31;8.48;;;5.63;;
757;SDS011;363;48.764;9.172;2023-04-05T03:04:56;6.90;;;5.60;;
757;SDS011;363;48.764;9.172;2023-04-05T03:07:22;6.83;;;5.67;;
757;SDS011;363;48.764;9.172;2023-04-05T03:09:49;7.07;;;5.95;;
757;SDS011;363;48.764;9.172;2023-04-05T03:12:15;7.10;;;6.27;;
757;SDS011;363;48.764;9.172;2023-04-05T03:14:41;6.47;;;5.43;;
757;SDS011;363;48.764;9.172;2023-04-05T03:17:07;7.37;;;6.23;;
757;SDS011;363;48.764;9.172;2023-04-05T03:19:33;7.50;;;6.10;;
757;SDS011;363;48.764;9.172;2023-04-05T03:21:59;7.18;;;5.97;;
757;SDS011;363;48.764;9.172;2023-04-05T03:24:25;9.10;;;6.20;;
757;SDS011;363;48.764;9.172;2023-04-05T03:26:51;8.70;;;7.03;;
757;SDS011;363;48.764;9.172;2023-04-05T03:29:17;7.35;;;6.15;;
757;SDS011;363;48.764;9.172;2023-04-05T03:31:43;6.90;;;6.00;;
757;SDS011;363;48.764;9.172;2023-04-05T03:34:09;6.32;;;5.72;;
757;SDS011;363;48.764;9.172;2023-04-05T03:36:34;7.53;;;6.37;;
757;SDS011;363;48.764;9.172;2023-04-05T03:39:09;6.43;;;5.82;;
757;SDS011;363;48.764;9.172;2023-04-05T03:41:36;7.97;;;5.80;;
757;SDS011;363;48.764;9.172;2023-04-05T03:44:02;6.90;;;6.03;;
757;SDS011;363;48.764;9.172;2023-04-05T03:46:28;7.07;;;5.82;;
757;SDS011;363;48.764;9.172;2023-04-05T03:48:55;6.55;;;5.85;;
757;SDS011;363;48.764;9.172;2023-04-05T03:51:21;6.03;;;5.30;;
757;SDS011;363;48.764;9.172;2023-04-05T03:53:48;7.50;;;5.97;;
757;SDS011;363;48.764;9.172;2023-04-05T03:56:13;6.82;;;5.90;;
757;SDS011;363;48.764;9.172;2023-04-05T03:58:39;6.47;;;5.75;;
757;SDS011;363;48.764;9.172;2023-04-05T04:01:05;7.80;;;6.47;;
757;SDS011;363;48.764;9.172;2023-04-05T04:03:31;7.20;;;6.17;;
757;SDS011;363;48.764;9.172;2023-04-05T04:05:57;10.90;;;6.60;;
757;SDS011;363;48.764;9.172;2023-04-05T04:08:23;10.20;;;7.10;;
757;SDS011;363;48.764;9.172;2023-04-05T04:10:49;7.23;;;5.93;;
757;SDS011;363;48.764;9.172;2023-04-05T04:13:15;6.55;;;5.90;;
757;SDS011;363;48.764;9.172;2023-04-05T04:15:43;7.65;;;5.82;;
757;SDS011;363;48.764;9.172;2023-04-05T04:18:09;7.38;;;5.70;;
757;SDS011;363;48.764;9.172;2023-04-05T04:20:36;6.07;;;5.40;;
757;SDS011;363;48.764;9.172;2023-04-05T04:23:02;6.30;;;5.70;;
757;SDS011;363;48.764;9.172;2023-04-05T04:25:28;7.43;;;6.63;;
757;SDS011;363;48.764;9.172;2023-04-05T04:27:56;6.97;;;6.28;;
757;SDS011;363;48.764;9.172;2023-04-05T04:30:22;8.40;;;6.00;;
757;SDS011;363;48.764;9.172;2023-04-05T04:32:49;6.82;;;6.03;;
757;SDS011;363;48.764;9.172;2023-04-05T04:35:25;7.97;;;6.97;;
757;SDS011;363;48.764;9.172;2023-04-05T04:40:22;8.00;;;6.15;;
757;SDS011;363;48.764;9.172;2023-04-05T04:43:04;6.93;;;5.97;;
757;SDS011;363;48.764;9.172;2023-04-05T04:45:30;6.95;;;6.28;;
757;SDS011;363;48.764;9.172;2023-04-05T04:47:59;8.15;;;5.68;;
757;SDS011;363;48.764;9.172;2023-04-05T04:50:25;8.93;;;6.47;;
757;SDS011;363;48.764;9.172;2023-04-05T04:52:51;8.25;;;7.07;;
757;SDS011;363;48.764;9.172;2023-04-05T04:55:17;6.47;;;5.87;;
757;SDS011;363;48.764;9.172;2023-04-05T04:57:50;8.63;;;6.53;;
757;SDS011;363;48.764;9.172;2023-04-05T05:00:16;6.80;;;5.95;;
757;SDS011;363;48.764;9.172;2023-04-05T05:02:42;7.28;;;5.88;;
757;SDS011;363;48.764;9.172;2023-04-05T05:05:08;8.43;;;6.13;;
757;SDS011;363;48.764;9.172;2023-04-05T05:07:35;10.60;;;6.82;;
757;SDS011;363;48.764;9.172;2023-04-05T05:10:02;10.05;;;6.22;;
757;SDS011;363;48.764;9.172;2023-04-05T05:12:28;8.15;;;6.60;;
757;SDS011;363;48.764;9.172;2023-04-05T05:14:55;7.55;;;6.78;;
757;SDS011;363;48.764;9.172;2023-04-05T05:17:21;8.75;;;7.05;;
757;SDS011;363;48.764;9.172;2023-04-05T05:19:47;7.05;;;6.35;;
757;SDS011;363;48.764;9.172;2023-04-05T05:22:13;9.07;;;6.90;;
757;SDS011;363;48.764;9.172;2023-04-05T05:24:39;7.87;;;6.87;;
757;SDS011;363;48.764;9.172;2023-04-05T05:27:05;9.07;;;6.97;;
757;SDS011;363;48.764;9.172;2023-04-05T05:29:30;6.97;;;6.30;;
757;SDS011;363;48.764;9.172;2023-04-05T05:31:56;10.57;;;7.03;;
757;SDS011;363;48.764;9.172;2023-04-05T05:34:22;11.40;;;7.53;;
757;SDS011;363;48.764;9.172;2023-04-05T05:36:48;8.50;;;6.60;;
757;SDS011;363;48.764;9.172;2023-04-05T05:39:16;9.23;;;6.80;;
757;SDS011;363;48.764;9.172;2023-04-05T05:41:42;7.93;;;6.13;;
757;SDS011;363;48.764;9.172;2023-04-05T05:44:09;9.38;;;7.18;;
757;SDS011;363;48.764;9.172;2023-04-05T05:46:34;12.10;;;7.07;;
757;SDS011;363;48.764;9.172;2023-04-05T05:49:00;7.73;;;6.20;;
757;SDS011;363;48.764;9.172;2023-04-05T05:51:26;7.67;;;6.97;;
757;SDS011;363;48.764;9.172;2023-04-05T05:53:52;11.10;;;8.53;;
757;SDS011;363;48.764;9.172;2023-04-05T05:56:17;8.90;;;7.40;;
757;SDS011;363;48.764;9.172;2023-04-05T05:58:43;12.37;;;7.80;;
757;SDS011;363;48.764;9.172;2023-04-05T06:01:09;11.93;;;7.53;;
757;SDS011;363;48.764;9.172;2023-04-05T06:03:36;9.00;;;7.30;;
757;SDS011;363;48.764;9.172;2023-04-05T06:06:02;13.25;;;9.35;;
757;SDS011;363;48.764;9.172;2023-04-05T06:08:30;11.88;;;7.57;;
757;SDS011;363;48.764;9.172;2023-04-05T06:10:56;8.20;;;6.80;;
757;SDS011;363;48.764;9.172;2023-04-05T06:13:22;8.90;;;7.30;;
757;SDS011;363;48.764;9.172;2023-04-05T06:15:47;13.77;;;7.27;;
757;SDS011;363;48.764;9.172;2023-04-05T06:18:13;8.33;;;7.43;;
757;SDS011;363;48.764;9.172;2023-04-05T06:20:40;12.20;;;9.00;;
757;SDS011;363;48.764;9.172;2023-04-05T06:23:08;9.98;;;8.10;;
757;SDS011;363;48.764;9.172;2023-04-05T06:25:34;9.88;;;7.60;;
757;SDS011;363;48.764;9.172;2023-04-05T06:28:03;8.70;;;7.80;;
757;SDS011;363;48.764;9.172;2023-04-05T06:30:30;12.88;;;7.03;;
757;SDS011;363;48.764;9.172;2023-04-05T06:32:57;11.32;;;8.35;;
757;SDS011;363;48.764;9.172;2023-04-05T06:35:23;8.67;;;7.77;;
757;SDS011;363;48.764;9.172;2023-04-05T06:37:49;10.75;;;8.43;;
757;SDS011;363;48.764;9.172;2023-04-05T06:40:15;8.90;;;8.00;;
757;SDS011;363;48.764;9.172;2023-04-05T06:42:42;10.23;;;7.95;;
757;SDS011;363;48.764;9.172;2023-04-05T06:45:08;8.52;;;7.72;;
757;SDS011;363;48.764;9.172;2023-04-05T06:47:34;9.52;;;7.90;;
757;SDS011;363;48.764;9.172;2023-04-05T06:50:01;9.15;;;8.18;;
757;SDS011;363;48.764;9.172;2023-04-05T06:52:28;8.60;;;7.68;;
757;SDS011;363;48.764;9.172;2023-04-05T06:54:54;8.60;;;7.70;;
757;SDS011;363;48.764;9.172;2023-04-05T06:57:20;12.82;;;10.10;;
757;SDS011;363;48.764;9.172;2023-04-05T06:59:46;9.60;;;8.43;;
757;SDS011;363;48.764;9.172;2023-04-05T07:02:12;9.20;;;8.30;;
757;SDS011;363;48.764;9.172;2023-04-05T07:04:38;9.50;;;8.50;;
757;SDS011;363;48.764;9.172;2023-04-05T07:07:04;9.80;;;8.25;;
757;SDS011;363;48.764;9.172;2023-04-05T07:09:33;12.80;;;8.23;;
757;SDS011;363;48.764;9.172;2023-04-05T07:11:59;10.93;;;8.02;;
757;SDS011;363;48.764;9.172;2023-04-05T07:14:28;9.18;;;8.25;;
757;SDS011;363;48.764;9.172;2023-04-05T07:16:54;8.43;;;7.60;;
757;SDS011;363;48.764;9.172;2023-04-05T07:19:20;9.50;;;7.50;;
757;SDS011;363;48.764;9.172;2023-04-05T07:21:47;8.23;;;7.47;;
757;SDS011;363;48.764;9.172;2023-04-05T07:24:12;9.43;;;8.55;;
757;SDS011;363;48.764;9.172;2023-04-05T07:26:41;12.60;;;8.50;;
757;SDS011;363;48.764;9.172;2023-04-05T07:29:08;9.30;;;8.43;;
757;SDS011;363;48.764;9.172;2023-04-05T07:31:37;11.60;;;9.48;;
757;SDS011;363;48.764;9.172;2023-04-05T07:34:04;9.85;;;8.85;;
757;SDS011;363;48.764;9.172;2023-04-05T07:36:30;9.20;;;8.30;;
757;SDS011;363;48.764;9.172;2023-04-05T07:38:56;9.67;;;8.80;;
757;SDS011;363;48.764;9.172;2023-04-05T07:41:23;11.75;;;9.00;;
757;SDS011;363;48.764;9.172;2023-04-05T07:43:50;9.50;;;8.65;;
757;SDS011;363;48.764;9.172;2023-04-05T07:46:15;9.90;;;9.00;;
757;SDS011;363;48.764;9.172;2023-04-05T07:48:41;10.50;;;9.50;;
757;SDS011;363;48.764;9.172;2023-04-05T07:51:07;9.40;;;8.50;;
757;SDS011;363;48.764;9.172;2023-04-05T07:53:34;10.43;;;9.35;;
757;SDS011;363;48.764;9.172;2023-04-05T07:56:04;9.23;;;8.43;;
757;SDS011;363;48.764;9.172;2023-04-05T07:58:40;9.57;;;8.48;;
757;SDS011;363;48.764;9.172;2023-04-05T08:01:07;16.90;;;13.43;;
757;SDS011;363;48.764;9.172;2023-04-05T08:03:34;10.30;;;9.30;;
757;SDS011;363;48.764;9.172;2023-04-05T08:06:14;10.40;;;9.40;;
757;SDS011;363;48.764;9.172;2023-04-05T08:08:43;11.82;;;10.68;;
757;SDS011;363;48.764;9.172;2023-04-05T08:11:10;12.38;;;11.18;;
757;SDS011;363;48.764;9.172;2023-04-05T08:13:36;9.90;;;8.87;;
757;SDS011;363;48.764;9.172;2023-04-05T08:16:05;9.93;;;9.13;;
757;SDS011;363;48.764;9.172;2023-04-05T08:18:31;10.52;;;9.63;;
757;SDS011;363;48.764;9.172;2023-04-05T08:20:57;10.63;;;9.43;;
757;SDS011;363;48.764;9.172;2023-04-05T08:23:22;10.67;;;9.67;;
757;SDS011;363;48.764;9.172;2023-04-05T08:25:48;11.07;;;9.93;;
757;SDS011;363;48.764;9.172;2023-04-05T08:28:14;14.10;;;9.60;;
757;SDS011;363;48.764;9.172;2023-04-05T08:30:40;16.00;;;9.97;;
757;SDS011;363;48.764;9.172;2023-04-05T08:33:06;11.88;;;10.77;;
757;SDS011;363;48.764;9.172;2023-04-05T08:35:34;10.77;;;8.60;;
757;SDS011;363;48.764;9.172;2023-04-05T08:38:00;11.27;;;9.37;;
757;SDS011;363;48.764;9.172;2023-04-05T08:40:31;10.10;;;9.20;;
757;SDS011;363;48.764;9.172;2023-04-05T08:43:07;9.98;;;9.18;;
757;SDS011;363;48.764;9.172;2023-04-05T08:45:40;11.97;;;8.83;;
757;SDS011;363;48.764;9.172;2023-04-05T08:48:12;14.47;;;9.90;;
757;SDS011;363;48.764;9.172;2023-04-05T08:50:37;11.93;;;9.00;;
757;SDS011;363;48.764;9.172;2023-04-05T08:53:03;9.20;;;8.27;;
757;SDS011;363;48.764;9.172;2023-04-05T08:55:29;12.17;;;10.27;;
757;SDS011;363;48.764;9.172;2023-04-05T08:57:54;8.83;;;7.93;;
757;SDS011;363;48.764;9.172;2023-04-05T09:00:23;9.75;;;8.85;;
757;SDS011;363;48.764;9.172;2023-04-05T09:02:50;9.80;;;8.95;;
757;SDS011;363;48.764;9.172;2023-04-05T09:05:18;10.52;;;8.50;;
757;SDS011;363;48.764;9.172;2023-04-05T09:07:45;10.90;;;9.88;;
757;SDS011;363;48.764;9.172;2023-04-05T09:10:12;10.82;;;9.68;;
757;SDS011;363;48.764;9.172;2023-04-05T09:12:38;8.70;;;7.95;;
757;SDS011;363;48.764;9.172;2023-04-05T09:15:05;6.78;;;5.50;;
757;SDS011;363;48.764;9.172;2023-04-05T09:17:32;6.80;;;6.20;;
757;SDS011;363;48.764;9.172;2023-04-05T09:19:58;6.15;;;5.60;;
757;SDS011;363;48.764;9.172;2023-04-05T09:22:24;7.37;;;5.63;;
757;SDS011;363;48.764;9.172;2023-04-05T09:24:49;8.40;;;7.70;;
757;SDS011;363;48.764;9.172;2023-04-05T09:27:18;7.83;;;7.13;;
757;SDS011;363;48.764;9.172;2023-04-05T09:29:45;7.90;;;7.30;;
757;SDS011;363;48.764;9.172;2023-04-05T09:32:12;6.60;;;6.00;;
757;SDS011;363;48.764;9.172;2023-04-05T09:34:39;7.47;;;6.68;;
757;SDS011;363;48.764;9.172;2023-04-05T09:37:15;6.28;;;5.68;;
757;SDS011;363;48.764;9.172;2023-04-05T09:39:43;7.25;;;6.65;;
757;SDS011;363;48.764;9.172;2023-04-05T09:42:13;6.82;;;6.22;;
757;SDS011;363;48.764;9.172;2023-04-05T09:44:56;6.72;;;6.13;;
757;SDS011;363;48.764;9.172;2023-04-05T09:47:30;6.47;;;5.80;;
757;SDS011;363;48.764;9.172;2023-04-05T09:49:57;6.90;;;6.20;;
757;SDS011;363;48.764;9.172;2023-04-05T09:52:26;7.60;;;6.07;;
757;SDS011;363;48.764;9.172;2023-04-05T09:54:56;7.00;;;6.25;;
757;SDS011;363;48.764;9.172;2023-04-05T09:57:23;6.80;;;6.25;;
757;SDS011;363;48.764;9.172;2023-04-05T09:59:51;6.80;;;6.25;;
757;SDS011;363;48.764;9.172;2023-04-05T10:02:17;6.28;;;5.68;;
757;SDS011;363;48.764;9.172;2023-04-05T10:04:44;7.13;;;6.53;;
757;SDS011;363;48.764;9.172;2023-04-05T10:07:12;7.10;;;6.47;;
757;SDS011;363;48.764;9.172;2023-04-05T10:09:39;6.50;;;6.00;;
757;SDS011;363;48.764;9.172;2023-04-05T10:12:06;6.10;;;5.60;;
757;SDS011;363;48.764;9.172;2023-04-05T10:14:33;8.60;;;5.60;;
757;SDS011;363;48.764;9.172;2023-04-05T10:22:40;7.93;;;7.15;;
757;SDS011;363;48.764;9.172;2023-04-05T10:25:34;7.28;;;6.43;;
757;SDS011;363;48.764;9.172;2023-04-05T10:28:05;6.50;;;5.90;;
757;SDS011;363;48.764;9.172;2023-04-05T10:30:38;6.82;;;5.60;;
757;SDS011;363;48.764;9.172;2023-04-05T10:35:49;5.97;;;5.47;;
757;SDS011;363;48.764;9.172;2023-04-05T10:38:27;6.82;;;6.22;;
757;SDS011;363;48.764;9.172;2023-04-05T10:41:00;6.43;;;5.82;;
757;SDS011;363;48.764;9.172;2023-04-05T10:43:34;7.40;;;6.20;;
757;SDS011;363;48.764;9.172;2023-04-05T10:46:03;7.45;;;6.43;;
757;SDS011;363;48.764;9.172;2023-04-05T10:51:15;7.10;;;6.40;;
757;SDS011;363;48.764;9.172;2023-04-05T10:53:41;6.37;;;5.77;;
757;SDS011;363;48.764;9.172;2023-04-05T10:56:07;6.30;;;5.70;;
757;SDS011;363;48.764;9.172;2023-04-05T10:58:34;5.40;;;5.00;;
757;SDS011;363;48.764;9.172;2023-04-05T11:01:01;5.50;;;5.00;;
757;SDS011;363;48.764;9.172;2023-04-05T11:08:54;5.50;;;5.10;;
757;SDS011;363;48.764;9.172;2023-04-05T11:11:37;6.40;;;5.90;;
757;SDS011;363;48.764;9.172;2023-04-05T11:14:04;6.13;;;5.53;;
757;SDS011;363;48.764;9.172;2023-04-05T11:16:41;5.88;;;5.40;;
757;SDS011;363;48.764;9.172;2023-04-05T11:19:11;7.15;;;6.55;;
757;SDS011;363;48.764;9.172;2023-04-05T11:21:37;6.43;;;5.87;;
757;SDS011;363;48.764;9.172;2023-04-05T11:24:03;6.77;;;6.27;;
757;SDS011;363;48.764;9.172;2023-04-05T11:29:11;6.63;;;6.03;;
757;SDS011;363;48.764;9.172;2023-04-05T11:31:58;6.90;;;6.30;;
757;SDS011;363;48.764;9.172;2023-04-05T11:34:24;6.63;;;6.03;;
757;SDS011;363;48.764;9.172;2023-04-05T11:36:50;6.33;;;5.80;;
757;SDS011;363;48.764;9.172;2023-04-05T11:44:39;6.57;;;5.53;;
757;SDS011;363;48.764;9.172;2023-04-05T11:47:06;6.40;;;5.85;;
757;SDS011;363;48.764;9.172;2023-04-05T11:49:33;7.15;;;5.55;;
757;SDS011;363;48.764;9.172;2023-04-05T11:52:08;5.97;;;5.38;;
757;SDS011;363;48.764;9.172;2023-04-05T11:54:35;7.65;;;7.00;;
757;SDS011;363;48.764;9.172;2023-04-05T11:57:02;5.45;;;5.00;;
757;SDS011;363;48.764;9.172;2023-04-05T11:59:29;7.30;;;6.00;;
757;SDS011;363;48.764;9.172;2023-04-05T12:02:02;7.93;;;7.22;;
757;SDS011;363;48.764;9.172;2023-04-05T12:04:31;9.50;;;8.50;;
757;SDS011;363;48.764;9.172;2023-04-05T12:07:09;6.40;;;5.90;;
757;SDS011;363;48.764;9.172;2023-04-05T12:09:35;6.90;;;6.22;;
757;SDS011;363;48.764;9.172;2023-04-05T12:12:01;6.27;;;5.67;;
757;SDS011;363;48.764;9.172;2023-04-05T12:14:27;6.33;;;5.67;;
757;SDS011;363;48.764;9.172;2023-04-05T12:16:52;5.97;;;5.47;;
757;SDS011;363;48.764;9.172;2023-04-05T12:19:18;7.97;;;7.17;;
757;SDS011;363;48.764;9.172;2023-04-05T12:21:46;6.22;;;5.72;;
757;SDS011;363;48.764;9.172;2023-04-05T12:24:12;7.50;;;6.77;;
757;SDS011;363;48.764;9.172;2023-04-05T12:26:38;5.20;;;4.70;;
757;SDS011;363;48.764;9.172;2023-04-05T12:29:04;7.55;;;5.95;;
757;SDS011;363;48.764;9.172;2023-04-05T12:31:39;6.83;;;5.67;;
757;SDS011;363;48.764;9.172;2023-04-05T12:34:06;6.13;;;5.63;;
757;SDS011;363;48.764;9.172;2023-04-05T12:36:32;6.50;;;5.90;;
757;SDS011;363;48.764;9.172;2023-04-05T12:38:59;5.50;;;5.00;;
757;SDS011;363;48.764;9.172;2023-04-05T12:41:31;6.07;;;5.50;;
757;SDS011;363;48.764;9.172;2023-04-05T12:43:58;7.13;;;5.90;;
757;SDS011;363;48.764;9.172;2023-04-05T12:49:11;7.95;;;6.50;;
757;SDS011;363;48.764;9.172;2023-04-05T12:51:45;7.68;;;6.35;;
757;SDS011;363;48.764;9.172;2023-04-05T12:54:11;9.75;;;6.15;;
757;SDS011;363;48.764;9.172;2023-04-05T12:56:50;5.18;;;4.68;;
757;SDS011;363;48.764;9.172;2023-04-05T12:59:19;5.82;;;5.25;;
757;SDS011;363;48.764;9.172;2023-04-05T13:01:45;7.30;;;6.60;;
757;SDS011;363;48.764;9.172;2023-04-05T13:04:11;7.00;;;5.23;;
757;SDS011;363;48.764;9.172;2023-04-05T13:06:37;6.03;;;5.53;;
757;SDS011;363;48.764;9.172;2023-04-05T13:09:02;6.13;;;5.53;;
757;SDS011;363;48.764;9.172;2023-04-05T13:11:28;5.50;;;4.97;;
757;SDS011;363;48.764;9.172;2023-04-05T13:13:54;9.93;;;5.70;;
757;SDS011;363;48.764;9.172;2023-04-05T13:16:19;5.97;;;5.40;;
757;SDS011;363;48.764;9.172;2023-04-05T13:18:45;6.18;;;5.50;;
757;SDS011;363;48.764;9.172;2023-04-05T13:21:11;6.00;;;5.60;;
757;SDS011;363;48.764;9.172;2023-04-05T13:23:37;5.57;;;5.10;;
757;SDS011;363;48.764;9.172;2023-04-05T13:26:04;6.00;;;5.50;;
757;SDS011;363;48.764;9.172;2023-04-05T13:28:30;6.30;;;5.03;;
757;SDS011;363;48.764;9.172;2023-04-05T13:30:56;7.07;;;5.50;;
757;SDS011;363;48.764;9.172;2023-04-05T13:33:22;6.20;;;5.60;;
757;SDS011;363;48.764;9.172;2023-04-05T13:35:47;5.47;;;4.97;;
757;SDS011;363;48.764;9.172;2023-04-05T13:38:13;5.37;;;4.87;;
757;SDS011;363;48.764;9.172;2023-04-05T13:40:39;5.80;;;5.30;;
757;SDS011;363;48.764;9.172;2023-04-05T13:43:05;5.38;;;4.88;;
757;SDS011;363;48.764;9.172;2023-04-05T13:45:32;6.78;;;6.18;;
757;SDS011;363;48.764;9.172;2023-04-05T13:47:58;5.65;;;5.03;;
757;SDS011;363;48.764;9.172;2023-04-05T13:50:24;5.63;;;5.10;;
757;SDS011;363;48.764;9.172;2023-04-05T13:52:50;6.70;;;6.00;;
757;SDS011;363;48.764;9.172;2023-04-05T13:55:16;6.55;;;6.05;;
757;SDS011;363;48.764;9.172;2023-04-05T13:57:42;8.30;;;6.00;;
757;SDS011;363;48.764;9.172;2023-04-05T14:00:08;8.87;;;6.70;;
757;SDS011;363;48.764;9.172;2023-04-05T14:02:34;5.20;;;4.80;;
757;SDS011;363;48.764;9.172;2023-04-05T14:05:00;5.73;;;5.33;;
757;SDS011;363;48.764;9.172;2023-04-05T14:07:26;7.30;;;6.60;;
757;SDS011;363;48.764;9.172;2023-04-05T14:09:52;7.88;;;6.57;;
757;SDS011;363;48.764;9.172;2023-04-05T14:12:18;6.27;;;5.60;;
757;SDS011;363;48.764;9.172;2023-04-05T14:14:43;6.00;;;5.50;;
757;SDS011;363;48.764;9.172;2023-04-05T14:17:09;6.80;;;5.90;;
757;SDS011;363;48.764;9.172;2023-04-05T14:19:36;5.93;;;5.32;;
757;SDS011;363;48.764;9.172;2023-04-05T14:22:02;6.25;;;5.65;;
757;SDS011;363;48.764;9.172;2023-04-05T14:24:28;6.17;;;5.60;;
757;SDS011;363;48.764;9.172;2023-04-05T14:26:54;6.27;;;5.67;;
757;SDS011;363;48.764;9.172;2023-04-05T14:29:20;6.10;;;5.50;;
757;SDS011;363;48.764;9.172;2023-04-05T14:31:46;6.30;;;5.70;;
757;SDS011;363;48.764;9.172;2023-04-05T14:34:12;6.00;;;5.40;;
757;SDS011;363;48.764;9.172;2023-04-05T14:36:38;5.37;;;4.87;;
757;SDS011;363;48.764;9.172;2023-04-05T14:39:04;6.10;;;5.33;;
757;SDS011;363;48.764;9.172;2023-04-05T14:41:30;16.77;;;7.57;;
757;SDS011;363;48.764;9.172;2023-04-05T14:43:56;5.90;;;5.40;;
757;SDS011;363;48.764;9.172;2023-04-05T14:46:22;5.95;;;5.45;;
757;SDS011;363;48.764;9.172;2023-04-05T14:48:48;6.37;;;5.73;;
757;SDS011;363;48.764;9.172;2023-04-05T14:51:13;6.97;;;6.37;;
757;SDS011;363;48.764;9.172;2023-04-05T14:53:39;5.70;;;5.00;;
757;SDS011;363;48.764;9.172;2023-04-05T14:56:05;6.05;;;5.55;;
757;SDS011;363;48.764;9.172;2023-04-05T14:58:34;5.95;;;5.45;;
757;SDS011;363;48.764;9.172;2023-04-05T15:00:59;6.40;;;5.83;;
757;SDS011;363;48.764;9.172;2023-04-05T15:03:25;6.97;;;6.37;;
757;SDS011;363;48.764;9.172;2023-04-05T15:05:51;8.40;;;6.13;;
757;SDS011;363;48.764;9.172;2023-04-05T15:08:17;6.00;;;5.50;;
757;SDS011;363;48.764;9.172;2023-04-05T15:10:42;6.47;;;5.80;;
757;SDS011;363;48.764;9.172;2023-04-05T15:13:08;6.95;;;6.35;;
757;SDS011;363;48.764;9.172;2023-04-05T15:15:35;6.30;;;5.57;;
757;SDS011;363;48.764;9.172;2023-04-05T15:18:01;6.50;;;5.90;;
757;SDS011;363;48.764;9.172;2023-04-05T15:20:27;6.22;;;5.70;;
757;SDS011;363;48.764;9.172;2023-04-05T15:22:53;7.60;;;5.60;;
757;SDS011;363;48.764;9.172;2023-04-05T15:25:19;6.40;;;5.90;;
757;SDS011;363;48.764;9.172;2023-04-05T15:27:44;6.40;;;5.80;;
757;SDS011;363;48.764;9.172;2023-04-05T15:30:10;6.83;;;6.23;;
757;SDS011;363;48.764;9.172;2023-04-05T15:32:36;6.30;;;5.55;;
757;SDS011;363;48.764;9.172;2023-04-05T15:35:02;5.87;;;5.37;;
757;SDS011;363;48.764;9.172;2023-04-05T15:37:28;6.05;;;5.45;;
757;SDS011;363;48.764;9.172;2023-04-05T15:39:54;5.67;;;5.03;;
757;SDS011;363;48.764;9.172;2023-04-05T15:42:20;7.07;;;6.07;;
757;SDS011;363;48.764;9.172;2023-04-05T15:44:48;7.97;;;6.25;;
757;SDS011;363;48.764;9.172;2023-04-05T15:47:15;7.05;;;5.97;;
757;SDS011;363;48.764;9.172;2023-04-05T15:49:41;10.95;;;9.85;;
757;SDS011;363;48.764;9.172;2023-04-05T15:52:07;6.87;;;5.90;;
757;SDS011;363;48.764;9.172;2023-04-05T15:54:36;6.97;;;5.90;;
757;SDS011;363;48.764;9.172;2023-04-05T15:57:02;7.17;;;6.57;;
757;SDS011;363;48.764;9.172;2023-04-05T15:59:27;6.57;;;5.77;;
757;SDS011;363;48.764;9.172;2023-04-05T16:01:53;6.80;;;5.83;;
757;SDS011;363;48.764;9.172;2023-04-05T16:04:19;5.70;;;5.20;;
757;SDS011;363;48.764;9.172;2023-04-05T16:06:44;6.50;;;5.90;;
757;SDS011;363;48.764;9.172;2023-04-05T16:09:10;6.63;;;6.03;;
757;SDS011;363;48.764;9.172;2023-04-05T16:11:36;6.53;;;5.93;;
757;SDS011;363;48.764;9.172;2023-04-05T16:14:02;7.60;;;6.90;;
757;SDS011;363;48.764;9.172;2023-04-05T16:16:28;7.60;;;6.80;;
757;SDS011;363;48.764;9.172;2023-04-05T16:18:54;16.10;;;12.70;;
757;SDS011;363;48.764;9.172;2023-04-05T16:21:20;5.67;;;5.17;;